Strona główna
METAR-TAF:

METAR-TAF

Lotnisko :

Lençóis, Bahia, Brazylia

Szerokość geograficzna: 12-29-00S, Długość geograficzna: 041-16-23W, wysokość: 511 m

Aktualna obserwacja pogody

Raport powstał 8 godziny i 29 minut temu, godzina 21:00 UTC
Wiatr 2 kt od południe
Temperatura 27°C
Wilgotność 79%
Ciśnienie 1012 hPa
Widzialność 10 km lub więcej
Mało chmury na wysokości 3000 ft

METAR: SBLE 082100Z 18002KT 9999 FEW030 27/23 Q1012

czas: 02:29 (05:29 UTC)


TAF: brakujący

Obserwacja i prognoza pogody dla ponad 4000 lotnisk (raport METAR i TAF).

Dostępne stacje oznaczono żółtymi i czerwonymi punktami na mapie.

Najedź kursorem aby zobaczyć nazwę stacji.

Kliknij aby zobaczyć obserwacje i prognozy pogody.

Aby zmienić mapę: kliknij na zielony przycisk z czarnym krzyżykiem, aby powiększyć; na zielony przycisk z myślnikiem, aby pomniejszyć; na zielone strzałki, aby przejść do map sąsiednich.


METAR-TAF: